SBMQSBMA

Guest
Details From SBMQ - MACAPA
To SBMA - Maraba
Flight Number -
Tags generated
Created
Modified
Stats Distance 356 nm / 659 km
Max Altitude 35,000 ft / 10,668 m
Waypoints 6
Social Downloads 0
Likes 0
Share

Download

Looking for another format? Having issues loading an existing format? Contact us
Advertisement - Login to hide

Notes

Basic altitude profile: - Ascent Rate: 500ft/min - Ascent Speed: 140kts - Cruise Altitude: 8000ft - Cruise Speed: 160kts - Descent Rate: 500ft/min - Descent Speed: 120kts Options: - Use NATs: yes - Use PACOTS: yes - Use low airways: yes - Use high airways: no

Route

SBMQ APURU PACAI 300S05000W TUI SBMA

ID Type Via Altitude (ft/m) Position (lat/lon) Dist (leg/tot) Name
O SBMQ APT - 0 / 0 0.05064 / -51.07216 - / 0 nm MACAPA
APURU FIX - 23,800 / 7,254 -1.09250 / -50.87100 69 / 69 nm
PACAI FIX - 35,000 / 10,668 -2.46717 / -50.66267 83 / 153 nm
300S05000W LATLON - 31,400 / 9,571 -3.00000 / -50.00000 51 / 204 nm
TUI VOR - 21,500 / 6,553 -3.80134 / -49.72133 50 / 255 nm TUCURUI VOR-DME
O SBMA APT - 0 / 0 -5.36859 / -49.13802 100 / 355 nm Maraba

Altitude Profile

Advertisement - Login to hide

Weather


0- 5 10 15 20 25 30 35+ Temperature / °C

Clouds and Precipitation
Forecast for 2021-03-22 12:00 UTC. Updated 2 months ago

Ground ~20,000 ft ~40,000 ft Winds

SBMQ

Details ICAO SBMQ (MCP)
Name Macapa, Alberto A Intl
Region Brazil
Timezone America/Belem (UTC-3.0)
Stats Elevation 56 ft / 17 m (AMSL)
Location 0.050621° -51.072100°
Runways 1
Magnetic Variation 19.475° W

METAR

SBMQ 111300Z 34006KT 9999 SCT010 BKN016 BKN080 30/26 Q1013

Decode

TAF

TAF SBMQ 110903Z 1112/1212 33005KT 9999 SCT010 TX31/1117Z TN24/1209Z BECMG 1112/1114 08010KT PROB40 TEMPO 1115/1121 4000 TSRA BKN013 FEW025CB BECMG 1200/1202 34005KT PROB30 1209/1212 4000 RA BKN007 RMK PHQ

Decode

Departure Runways

ID Width Length Bearing (true/mag) Surface Threshold Overrun Markings Lighting
08 148 ft / 45 m 6,896 ft / 2,102 m 57.22° / 76.70° ASPHALT 0 ft / 0 m 0 ft / 0 m APP EDGE THRESHOLD REIL-OMNI
26 148 ft / 45 m 6,896 ft / 2,102 m 237.22° / 256.70° ASPHALT 0 ft / 0 m 0 ft / 0 m APP EDGE THRESHOLD REIL-OMNI

SBMA

Details ICAO SBMA (MAB)
Name Maraba Airport
Region Brazil
Timezone America/Belem (UTC-3.0)
Stats Elevation 356 ft / 109 m (AMSL)
Location -5.368660° -49.138100°
Runways 1
Magnetic Variation 20.731° W

METAR

SBMA 111300Z 11004KT 9999 FEW020 32/23 Q1013

Decode

TAF

TAF SBMA 110903Z 1112/1124 16003KT 9999 SCT013 TX32/1117Z TN25/1124Z BECMG 1114/1116 08005KT RMK PHQ

Decode

Destination Runways

ID Width Length Bearing (true/mag) Surface Threshold Overrun Markings Lighting
07 148 ft / 45 m 6,568 ft / 2,002 m 50.35° / 71.08° ASPHALT 0 ft / 0 m 210 ft / 64 m APP EDGE THRESHOLD
25 148 ft / 45 m 6,568 ft / 2,002 m 230.35° / 251.08° ASPHALT 0 ft / 0 m 197 ft / 60 m APP EDGE THRESHOLD

Popular Alternatives